createdAt,value
2023-01-18T00:01:10.812Z,97692.35
2023-01-18T00:03:39.632Z,97694.25
2023-01-18T00:06:09.574Z,97685.03
2023-01-18T00:08:39.153Z,97682.98
2023-01-18T00:11:10.091Z,97679.24
2023-01-18T00:13:38.813Z,97680.47
2023-01-18T00:16:12.287Z,97677.48
2023-01-18T00:18:40.173Z,97675.79
2023-01-18T00:21:10.559Z,97672.84
2023-01-18T00:23:39.510Z,97671.59
2023-01-18T00:26:10.279Z,97668.55
2023-01-18T00:28:39.669Z,97671.63
2023-01-18T00:31:20.547Z,97681.05
2023-01-18T00:33:50.063Z,97672.75
2023-01-18T00:36:18.940Z,97670.77
2023-01-18T00:38:53.971Z,97669.66
2023-01-18T00:41:22.516Z,97671.39
2023-01-18T00:43:50.750Z,97672.45
2023-01-18T00:46:27.872Z,97673.55
2023-01-18T00:48:55.680Z,97665.49
2023-01-18T00:51:25.398Z,97665.20
2023-01-18T00:53:53.259Z,97667.73
2023-01-18T00:56:22.398Z,97676.19
2023-01-18T00:58:50.369Z,97677.61
2023-01-18T01:02:14.099Z,97676.05
2023-01-18T01:05:21.760Z,97668.28
2023-01-18T01:07:50.741Z,97668.44
2023-01-18T01:10:18.687Z,97664.66
2023-01-18T01:13:05.184Z,97660.84
2023-01-18T01:15:51.414Z,97652.01
2023-01-18T01:18:37.639Z,97648.41
2023-01-18T01:21:25.624Z,97641.53
2023-01-18T01:24:14.036Z,97642.44
2023-01-18T01:26:44.996Z,97640.42
2023-01-18T01:29:14.843Z,97638.27
2023-01-18T01:31:42.650Z,97633.05
2023-01-18T01:34:11.027Z,97630.06
2023-01-18T01:36:39.425Z,97629.41
2023-01-18T01:39:10.888Z,97626.79
2023-01-18T01:41:39.028Z,97627.16
2023-01-18T01:44:23.700Z,97633.41
2023-01-18T01:46:52.175Z,97624.56
2023-01-18T01:49:32.842Z,97628.94
2023-01-18T01:52:05.328Z,97632.70
2023-01-18T01:55:13.601Z,97635.23
2023-01-18T01:57:46.651Z,97632.21
2023-01-18T02:00:19.650Z,97633.92
2023-01-18T02:02:52.724Z,97626.96
2023-01-18T02:05:20.710Z,97622.64
2023-01-18T02:07:49.045Z,97620.44
2023-01-18T02:10:17.687Z,97624.67
2023-01-18T02:12:48.875Z,97627.17
2023-01-18T02:15:19.170Z,97629.75
2023-01-18T02:18:09.995Z,97627.73
2023-01-18T02:21:01.723Z,97623.37
2023-01-18T02:23:54.690Z,97618.29
2023-01-18T02:27:04.371Z,97615.88
2023-01-18T02:30:04.334Z,97618.37
2023-01-18T02:33:01.319Z,97612.84
2023-01-18T02:35:39.421Z,97613.86
2023-01-18T02:38:12.979Z,97621.38
2023-01-18T02:40:57.851Z,97626.91
2023-01-18T02:43:45.571Z,97628.46
2023-01-18T02:46:36.118Z,97633.34
2023-01-18T02:49:08.479Z,97632.66
2023-01-18T02:51:36.903Z,97634.46
2023-01-18T02:54:10.262Z,97637.58
2023-01-18T02:56:52.060Z,97640.95
2023-01-18T02:59:29.750Z,97639.30
2023-01-18T03:02:01.974Z,97642.32
2023-01-18T03:04:42.910Z,97642.89
2023-01-18T03:07:16.190Z,97647.40
2023-01-18T03:09:45.194Z,97643.89
2023-01-18T03:12:26.688Z,97640.74
2023-01-18T03:15:08.664Z,97642.88
2023-01-18T03:17:41.968Z,97641.20
2023-01-18T03:20:13.053Z,97640.90
2023-01-18T03:23:12.459Z,97639.75
2023-01-18T03:25:46.293Z,97645.08
2023-01-18T03:28:41.212Z,97642.61
2023-01-18T03:31:31.619Z,97641.81
2023-01-18T03:34:09.828Z,97643.23
2023-01-18T03:36:43.422Z,97639.14
2023-01-18T03:39:17.727Z,97637.53
2023-01-18T03:41:50.774Z,97634.34
2023-01-18T03:44:32.679Z,97635.42
2023-01-18T03:47:03.145Z,97638.58
2023-01-18T03:49:32.992Z,97643.92
2023-01-18T03:52:10.127Z,97637.57
2023-01-18T03:54:50.735Z,97628.55
2023-01-18T03:57:35.608Z,97624.54
2023-01-18T04:00:06.073Z,97623.30
2023-01-18T04:02:40.942Z,97623.96
2023-01-18T04:05:10.530Z,97620.53
2023-01-18T04:07:38.260Z,97617.84
2023-01-18T04:10:06.837Z,97610.94
2023-01-18T04:12:35.123Z,97603.64
2023-01-18T04:15:04.291Z,97602.41
2023-01-18T04:17:32.226Z,97597.71
2023-01-18T04:20:00.064Z,97593.41
2023-01-18T04:22:28.140Z,97595.39
2023-01-18T04:24:56.140Z,97589.86
2023-01-18T04:27:25.246Z,97588.37
2023-01-18T04:29:53.026Z,97590.58
2023-01-18T04:32:21.073Z,97593.33
2023-01-18T04:34:49.166Z,97599.50
2023-01-18T04:37:16.945Z,97607.10
2023-01-18T04:39:46.874Z,97620.05
2023-01-18T04:42:14.567Z,97635.07
2023-01-18T04:44:42.234Z,97638.60
2023-01-18T04:47:10.007Z,97639.95
2023-01-18T04:49:37.971Z,97634.40
2023-01-18T04:52:07.227Z,97628.36
2023-01-18T04:54:35.337Z,97623.05
2023-01-18T04:57:03.268Z,97625.80
2023-01-18T04:59:30.992Z,97629.99
2023-01-18T05:01:58.859Z,97625.60
2023-01-18T05:04:26.783Z,97626.34
2023-01-18T05:06:54.450Z,97632.22
2023-01-18T05:09:22.533Z,97645.74
2023-01-18T05:11:50.396Z,97654.55
2023-01-18T05:14:18.075Z,97659.33
2023-01-18T05:16:46.017Z,97657.92
2023-01-18T05:19:13.922Z,97653.02
2023-01-18T05:21:41.737Z,97653.92
2023-01-18T05:24:09.633Z,97650.72
2023-01-18T05:26:37.622Z,97647.23
2023-01-18T05:29:05.366Z,97641.98
2023-01-18T05:31:33.219Z,97633.99
2023-01-18T05:34:01.042Z,97629.89
2023-01-18T05:36:28.739Z,97626.02
2023-01-18T05:38:56.831Z,97623.08
2023-01-18T05:41:25.061Z,97616.83
2023-01-18T05:43:52.726Z,97614.04
2023-01-18T05:46:20.805Z,97612.08
2023-01-18T05:48:48.454Z,97606.73
2023-01-18T05:51:16.257Z,97604.52
2023-01-18T05:53:44.324Z,97605.11
2023-01-18T05:56:12.188Z,97606.89
2023-01-18T05:58:40.120Z,97614.58
2023-01-18T06:01:08.874Z,97614.85
2023-01-18T06:03:37.146Z,97618.83
2023-01-18T06:06:05.035Z,97619.56
2023-01-18T06:08:33.963Z,97620.80
2023-01-18T06:11:02.451Z,97619.90
2023-01-18T06:13:31.708Z,97621.05
2023-01-18T06:16:00.912Z,97621.52
2023-01-18T06:18:31.223Z,97627.02
2023-01-18T06:21:01.643Z,97631.33
2023-01-18T06:23:30.497Z,97631.16
2023-01-18T06:25:58.773Z,97630.38
2023-01-18T06:28:30.273Z,97627.98
2023-01-18T06:30:59.356Z,97623.44
2023-01-18T06:33:27.077Z,97622.27
2023-01-18T06:35:54.830Z,97620.38
2023-01-18T06:38:23.051Z,97618.07
2023-01-18T06:40:50.755Z,97613.30
2023-01-18T06:43:18.529Z,97611.42
2023-01-18T06:45:55.753Z,97610.48
2023-01-18T06:48:24.937Z,97609.71
2023-01-18T06:50:56.006Z,97612.27
2023-01-18T06:53:25.307Z,97613.20
2023-01-18T06:55:57.867Z,97612.11
2023-01-18T06:58:26.992Z,97612.67
2023-01-18T07:00:56.523Z,97612.71
2023-01-18T07:03:26.038Z,97615.70
2023-01-18T07:05:55.503Z,97614.64
2023-01-18T07:08:23.971Z,97619.08
2023-01-18T07:10:54.405Z,97619.19
2023-01-18T07:13:23.879Z,97617.27
2023-01-18T07:15:58.385Z,97621.30
2023-01-18T07:18:31.801Z,97617.92
2023-01-18T07:21:02.231Z,97622.95
2023-01-18T07:23:30.921Z,97620.90
2023-01-18T07:26:07.537Z,97616.91
2023-01-18T07:28:36.443Z,97623.43
2023-01-18T07:31:06.302Z,97631.86
2023-01-18T07:33:35.417Z,97639.34
2023-01-18T07:36:09.844Z,97636.04
2023-01-18T07:38:39.035Z,97633.75
2023-01-18T07:41:16.365Z,97629.45
2023-01-18T07:43:46.363Z,97628.63
2023-01-18T07:46:20.160Z,97633.13
2023-01-18T07:48:48.499Z,97635.58
2023-01-18T07:51:19.284Z,97638.95
2023-01-18T07:53:47.268Z,97635.02
2023-01-18T07:56:17.645Z,97629.05
2023-01-18T07:58:48.969Z,97630.65
2023-01-18T08:01:19.973Z,97631.13
2023-01-18T08:03:49.853Z,97631.90
2023-01-18T08:06:25.717Z,97633.80
2023-01-18T08:08:57.324Z,97632.03
2023-01-18T08:11:27.645Z,97637.92
2023-01-18T08:13:55.606Z,97641.73
2023-01-18T08:16:24.484Z,97649.45
2023-01-18T08:18:52.519Z,97655.22
2023-01-18T08:21:20.429Z,97662.02
2023-01-18T08:23:48.184Z,97664.20
2023-01-18T08:26:16.251Z,97667.40
2023-01-18T08:28:44.914Z,97670.55
2023-01-18T08:31:16.168Z,97670.02
2023-01-18T08:33:46.097Z,97674.83
2023-01-18T08:36:20.696Z,97676.77
2023-01-18T08:38:55.312Z,97674.98
2023-01-18T08:41:28.588Z,97677.80
2023-01-18T08:43:57.755Z,97678.33
2023-01-18T08:46:26.133Z,97679.34
2023-01-18T08:48:56.326Z,97682.63
2023-01-18T08:51:26.158Z,97683.61
2023-01-18T08:53:59.676Z,97683.55
2023-01-18T08:56:28.229Z,97688.16
2023-01-18T08:58:56.388Z,97686.23
2023-01-18T09:01:24.858Z,97686.33
2023-01-18T09:03:58.523Z,97684.67
2023-01-18T09:06:32.492Z,97686.44
2023-01-18T09:09:01.331Z,97688.42
2023-01-18T09:11:29.814Z,97689.36
2023-01-18T09:14:00.971Z,97695.15
2023-01-18T09:16:31.685Z,97701.83
2023-01-18T09:19:00.139Z,97709.41
2023-01-18T09:21:29.289Z,97712.98
2023-01-18T09:23:57.358Z,97718.65
2023-01-18T09:26:25.661Z,97723.98
2023-01-18T09:28:55.674Z,97727.52
2023-01-18T09:31:25.938Z,97723.65
2023-01-18T09:33:59.032Z,97722.06
2023-01-18T09:36:31.421Z,97722.37
2023-01-18T09:38:59.573Z,97720.66
2023-01-18T09:41:37.499Z,97721.58
2023-01-18T09:44:20.731Z,97720.09
2023-01-18T09:46:54.387Z,97721.83
2023-01-18T09:49:36.851Z,97722.90
2023-01-18T09:52:19.547Z,97719.63
2023-01-18T09:55:00.063Z,97718.39
2023-01-18T09:58:16.385Z,97718.77
2023-01-18T10:00:47.862Z,97718.33
2023-01-18T10:03:33.170Z,97722.52
2023-01-18T10:06:10.100Z,97725.45
2023-01-18T10:09:04.354Z,97722.67
2023-01-18T10:11:36.293Z,97720.27
2023-01-18T10:14:17.851Z,97722.08
2023-01-18T10:16:55.479Z,97720.73
2023-01-18T10:19:31.386Z,97721.24
2023-01-18T10:22:14.783Z,97719.27
2023-01-18T10:25:18.655Z,97712.34
2023-01-18T10:27:58.552Z,97716.70
2023-01-18T10:31:01.724Z,97722.35
2023-01-18T10:33:35.409Z,97729.98
2023-01-18T10:36:11.926Z,97733.29
2023-01-18T10:38:42.744Z,97735.13
2023-01-18T10:41:25.788Z,97736.75
2023-01-18T10:43:54.938Z,97739.83
2023-01-18T10:46:23.150Z,97744.34
2023-01-18T10:48:53.248Z,97742.19
2023-01-18T10:51:25.382Z,97742.28
2023-01-18T10:53:53.133Z,97744.67
2023-01-18T10:56:26.244Z,97745.52
2023-01-18T10:58:59.142Z,97749.39
2023-01-18T11:01:32.004Z,97749.91
2023-01-18T11:04:06.805Z,97752.84
2023-01-18T11:06:48.909Z,97756.30
2023-01-18T11:09:47.282Z,97761.83
2023-01-18T11:12:41.338Z,97760.29
2023-01-18T11:15:16.619Z,97761.80
2023-01-18T11:17:54.880Z,97758.89
2023-01-18T11:20:45.882Z,97765.33
2023-01-18T11:23:18.212Z,97762.42
2023-01-18T11:25:58.657Z,97760.49
2023-01-18T11:28:50.253Z,97758.72
2023-01-18T11:31:23.235Z,97766.58
2023-01-18T11:34:06.477Z,97766.52
2023-01-18T11:36:42.312Z,97770.59
2023-01-18T11:39:28.454Z,97773.14
2023-01-18T11:42:11.559Z,97777.27
2023-01-18T11:45:15.533Z,97782.64
2023-01-18T11:48:10.731Z,97782.06
2023-01-18T11:50:46.833Z,97779.83
2023-01-18T11:53:38.939Z,97785.13
2023-01-18T11:56:32.326Z,97787.95
2023-01-18T11:59:03.206Z,97793.54
2023-01-18T12:02:06.193Z,97796.77
2023-01-18T12:04:56.269Z,97798.41
2023-01-18T12:07:46.099Z,97802.36
2023-01-18T12:10:23.483Z,97813.90
2023-01-18T12:13:31.282Z,97819.25
2023-01-18T12:16:08.525Z,97826.11
2023-01-18T12:19:01.181Z,97825.70
2023-01-18T12:21:49.587Z,97824.66
2023-01-18T12:24:45.945Z,97824.23
2023-01-18T12:27:24.399Z,97824.55
2023-01-18T12:30:03.747Z,97821.29
2023-01-18T12:33:03.358Z,97825.27
2023-01-18T12:35:58.496Z,97840.67
2023-01-18T12:38:30.284Z,97849.73
2023-01-18T12:41:19.875Z,97851.59
2023-01-18T12:43:59.071Z,97857.25
2023-01-18T12:46:28.622Z,97860.64
2023-01-18T12:49:04.628Z,97866.41
2023-01-18T12:51:37.733Z,97869.46
2023-01-18T12:54:18.232Z,97875.02
2023-01-18T12:56:51.629Z,97872.69
2023-01-18T12:59:20.813Z,97875.26
2023-01-18T13:01:57.729Z,97883.33
2023-01-18T13:04:32.675Z,97885.70
2023-01-18T13:07:08.071Z,97888.11
2023-01-18T13:09:43.711Z,97894.70
2023-01-18T13:12:12.932Z,97905.05
2023-01-18T13:14:45.810Z,97908.44
2023-01-18T13:17:18.502Z,97918.59
2023-01-18T13:19:58.709Z,97927.83
2023-01-18T13:22:48.168Z,97931.48
2023-01-18T13:25:48.568Z,97935.45
2023-01-18T13:28:40.003Z,97934.33
2023-01-18T13:31:08.521Z,97941.99
2023-01-18T13:33:42.669Z,97943.96
2023-01-18T13:36:14.784Z,97949.77
2023-01-18T13:38:58.201Z,97954.77
2023-01-18T13:41:32.362Z,97953.61
2023-01-18T13:44:25.632Z,97957.32
2023-01-18T13:46:57.528Z,97961.41
2023-01-18T13:49:38.670Z,97966.70
2023-01-18T13:52:35.496Z,97972.20
2023-01-18T13:55:25.226Z,97980.95
2023-01-18T13:57:56.583Z,97988.93
2023-01-18T14:00:26.060Z,97993.65
2023-01-18T14:03:14.482Z,98007.34
2023-01-18T14:05:45.322Z,98013.24
2023-01-18T14:08:26.342Z,98019.17
2023-01-18T14:11:02.298Z,98022.41
2023-01-18T14:13:45.424Z,98021.17
2023-01-18T14:16:18.134Z,98024.62
2023-01-18T14:19:21.706Z,98029.41
2023-01-18T14:21:59.371Z,98034.52
2023-01-18T14:24:46.130Z,98042.27
2023-01-18T14:27:19.641Z,98047.52
2023-01-18T14:29:53.505Z,98058.12
2023-01-18T14:32:30.094Z,98060.79
2023-01-18T14:35:02.073Z,98061.31
2023-01-18T14:37:34.617Z,98069.39
2023-01-18T14:40:28.631Z,98072.20
2023-01-18T14:43:05.632Z,98076.17
2023-01-18T14:45:39.361Z,98076.93
2023-01-18T14:48:20.404Z,98080.60
2023-01-18T14:50:51.401Z,98089.05
2023-01-18T14:53:25.116Z,98090.88
2023-01-18T14:56:14.910Z,98098.60
2023-01-18T14:58:53.601Z,98098.86
2023-01-18T15:01:43.218Z,98102.04
2023-01-18T15:04:36.385Z,98108.60
2023-01-18T15:07:17.443Z,98111.98
2023-01-18T15:09:47.121Z,98116.52
2023-01-18T15:12:19.869Z,98123.06
2023-01-18T15:14:50.497Z,98129.30
2023-01-18T15:17:23.946Z,98137.45
2023-01-18T15:19:54.675Z,98139.93
2023-01-18T15:22:29.488Z,98140.69
2023-01-18T15:24:59.410Z,98142.61
2023-01-18T15:27:32.007Z,98144.04
2023-01-18T15:30:01.596Z,98155.23
2023-01-18T15:32:32.746Z,98163.00
2023-01-18T15:35:02.109Z,98165.53
2023-01-18T15:37:37.585Z,98166.25
2023-01-18T15:40:15.068Z,98171.30
2023-01-18T15:42:47.616Z,98174.63
2023-01-18T15:45:20.691Z,98175.20
2023-01-18T15:47:56.013Z,98176.55
2023-01-18T15:50:32.472Z,98177.23
2023-01-18T15:53:06.827Z,98180.74
2023-01-18T15:55:40.696Z,98183.89
2023-01-18T15:58:15.224Z,98185.00
2023-01-18T16:00:48.109Z,98188.61
2023-01-18T16:03:21.992Z,98199.54
2023-01-18T16:06:18.841Z,98191.33
2023-01-18T16:09:11.922Z,98193.92
2023-01-18T16:11:44.152Z,98199.98
2023-01-18T16:14:34.241Z,98204.61
2023-01-18T16:17:13.053Z,98206.42
2023-01-18T16:19:47.204Z,98208.77
2023-01-18T16:22:33.578Z,98213.14
2023-01-18T16:25:11.066Z,98219.02
2023-01-18T16:27:57.224Z,98221.92
2023-01-18T16:30:32.613Z,98223.92
2023-01-18T16:33:09.363Z,98226.89
2023-01-18T16:35:39.875Z,98229.90
2023-01-18T16:38:12.435Z,98233.91
2023-01-18T16:40:43.987Z,98241.04
2023-01-18T16:43:18.263Z,98242.86
2023-01-18T16:45:48.496Z,98246.92
2023-01-18T16:48:20.291Z,98247.52
2023-01-18T16:50:48.777Z,98254.31
2023-01-18T16:53:17.573Z,98250.11
2023-01-18T16:55:48.331Z,98254.58
2023-01-18T16:58:18.535Z,98256.05
2023-01-18T17:00:54.710Z,98256.98
2023-01-18T17:03:23.325Z,98262.85
2023-01-18T17:05:51.572Z,98267.30
2023-01-18T17:08:19.733Z,98268.12
2023-01-18T17:10:50.077Z,98275.05
2023-01-18T17:13:18.617Z,98279.85
2023-01-18T17:15:46.570Z,98284.98
2023-01-18T17:18:25.585Z,98296.46
2023-01-18T17:20:54.447Z,98306.06
2023-01-18T17:23:23.255Z,98310.00
2023-01-18T17:25:51.288Z,98310.34
2023-01-18T17:28:19.668Z,98318.23
2023-01-18T17:30:49.706Z,98325.73
2023-01-18T17:33:20.656Z,98327.02
2023-01-18T17:35:50.194Z,98330.88
2023-01-18T17:38:24.307Z,98333.08
2023-01-18T17:40:53.433Z,98334.99
2023-01-18T17:43:33.351Z,98336.15
2023-01-18T17:46:03.468Z,98337.47
2023-01-18T17:48:31.260Z,98340.50
2023-01-18T17:50:59.264Z,98340.59
2023-01-18T17:53:27.278Z,98342.70
2023-01-18T17:55:55.327Z,98343.95
2023-01-18T17:58:23.055Z,98346.73
2023-01-18T18:00:51.236Z,98350.54
2023-01-18T18:03:20.347Z,98354.92
2023-01-18T18:05:48.261Z,98362.77
2023-01-18T18:08:19.332Z,98363.76
2023-01-18T18:10:48.008Z,98368.28
2023-01-18T18:13:15.726Z,98368.88
2023-01-18T18:15:49.867Z,98373.17
2023-01-18T18:18:23.113Z,98375.55
2023-01-18T18:20:59.605Z,98376.23
2023-01-18T18:23:28.915Z,98382.16
2023-01-18T18:25:57.449Z,98387.17
2023-01-18T18:28:27.931Z,98394.39
2023-01-18T18:30:57.755Z,98405.45
2023-01-18T18:33:27.463Z,98402.09
2023-01-18T18:35:55.563Z,98394.52
2023-01-18T18:38:23.590Z,98396.20
2023-01-18T18:40:51.578Z,98396.45
2023-01-18T18:43:21.100Z,98403.28
2023-01-18T18:45:50.763Z,98409.59
2023-01-18T18:48:18.591Z,98419.28
2023-01-18T18:50:47.638Z,98424.95
2023-01-18T18:53:16.876Z,98427.75
2023-01-18T18:55:45.362Z,98434.61
2023-01-18T18:58:13.319Z,98435.92
2023-01-18T19:00:41.439Z,98444.10
2023-01-18T19:03:09.560Z,98451.21
2023-01-18T19:05:38.189Z,98450.39
2023-01-18T19:08:06.489Z,98452.22
2023-01-18T19:10:34.437Z,98456.42
2023-01-18T19:13:04.898Z,98459.11
2023-01-18T19:15:33.094Z,98462.10
2023-01-18T19:18:00.834Z,98467.48
2023-01-18T19:20:28.750Z,98469.46
2023-01-18T19:22:57.124Z,98472.68
2023-01-18T19:25:25.205Z,98480.13
2023-01-18T19:27:53.027Z,98479.80
2023-01-18T19:30:21.285Z,98488.12
2023-01-18T19:32:51.011Z,98496.10
2023-01-18T19:35:20.258Z,98501.67
2023-01-18T19:37:48.728Z,98506.71
2023-01-18T19:40:16.837Z,98508.80
2023-01-18T19:42:44.755Z,98510.45
2023-01-18T19:45:19.552Z,98511.20
2023-01-18T19:47:56.680Z,98513.95
2023-01-18T19:50:26.295Z,98519.39
2023-01-18T19:52:54.224Z,98521.77
2023-01-18T19:55:22.247Z,98527.61
2023-01-18T19:57:52.199Z,98527.39
2023-01-18T20:00:20.259Z,98536.52
2023-01-18T20:02:48.432Z,98541.02
2023-01-18T20:05:16.699Z,98550.23
2023-01-18T20:07:44.456Z,98558.42
2023-01-18T20:10:12.542Z,98570.15
2023-01-18T20:12:40.683Z,98572.39
2023-01-18T20:15:08.616Z,98576.70
2023-01-18T20:17:36.655Z,98580.00
2023-01-18T20:20:05.053Z,98584.38
2023-01-18T20:22:34.952Z,98583.92
2023-01-18T20:25:03.066Z,98588.63
2023-01-18T20:27:30.943Z,98593.85
2023-01-18T20:29:58.947Z,98599.59
2023-01-18T20:32:26.817Z,98602.30
2023-01-18T20:34:54.909Z,98602.50
2023-01-18T20:37:22.853Z,98595.13
2023-01-18T20:39:50.624Z,98598.60
2023-01-18T20:42:18.594Z,98599.73
2023-01-18T20:44:49.218Z,98597.42
2023-01-18T20:47:17.103Z,98598.05
2023-01-18T20:49:45.852Z,98599.46
2023-01-18T20:52:13.649Z,98605.73
2023-01-18T20:54:41.425Z,98605.07
2023-01-18T20:57:09.662Z,98595.83
2023-01-18T20:59:37.542Z,98594.25
2023-01-18T21:02:05.523Z,98598.59
2023-01-18T21:04:33.876Z,98597.54
2023-01-18T21:07:01.656Z,98596.36
2023-01-18T21:09:29.485Z,98598.79
2023-01-18T21:11:57.497Z,98596.79
2023-01-18T21:14:25.318Z,98601.38
2023-01-18T21:16:53.207Z,98603.11
2023-01-18T21:19:21.675Z,98596.45
2023-01-18T21:21:49.384Z,98590.52
2023-01-18T21:24:17.310Z,98592.96
2023-01-18T21:26:45.196Z,98594.88
2023-01-18T21:29:14.321Z,98604.47
2023-01-18T21:31:42.296Z,98610.92
2023-01-18T21:34:10.469Z,98612.61
2023-01-18T21:36:38.330Z,98607.65
2023-01-18T21:39:06.041Z,98612.55
2023-01-18T21:41:52.527Z,98618.77
2023-01-18T21:44:46.556Z,98622.46
2023-01-18T21:47:17.692Z,98641.57
2023-01-18T21:50:16.940Z,98654.69
2023-01-18T21:53:03.930Z,98661.31
2023-01-18T21:55:31.761Z,98661.84
2023-01-18T21:58:17.784Z,98659.25
2023-01-18T22:00:45.650Z,98652.37
2023-01-18T22:03:17.850Z,98656.34
2023-01-18T22:05:45.712Z,98666.13
2023-01-18T22:08:13.696Z,98671.52
2023-01-18T22:10:45.318Z,98673.05
2023-01-18T22:13:13.179Z,98677.07
2023-01-18T22:15:40.942Z,98679.85
2023-01-18T22:18:09.925Z,98693.38
2023-01-18T22:20:38.113Z,98696.79
2023-01-18T22:23:05.898Z,98702.83
2023-01-18T22:25:33.665Z,98709.49
2023-01-18T22:28:02.215Z,98713.58
2023-01-18T22:30:30.218Z,98718.56
2023-01-18T22:32:58.137Z,98716.55
2023-01-18T22:35:25.938Z,98712.42
2023-01-18T22:37:53.739Z,98718.48
2023-01-18T22:40:21.523Z,98722.41
2023-01-18T22:42:49.234Z,98727.52
2023-01-18T22:45:17.007Z,98726.65
2023-01-18T22:47:45.171Z,98722.21
2023-01-18T22:50:13.470Z,98722.58
2023-01-18T22:52:41.308Z,98727.48
2023-01-18T22:55:09.777Z,98730.34
2023-01-18T22:57:37.588Z,98728.01
2023-01-18T23:00:07.189Z,98730.46
2023-01-18T23:02:35.317Z,98734.51
2023-01-18T23:05:03.097Z,98734.69
2023-01-18T23:07:30.931Z,98741.65
2023-01-18T23:09:58.745Z,98745.54
2023-01-18T23:12:26.504Z,98750.54
2023-01-18T23:15:12.774Z,98750.89
2023-01-18T23:17:42.257Z,98757.54
2023-01-18T23:20:11.944Z,98765.79
2023-01-18T23:22:39.802Z,98772.13
2023-01-18T23:25:08.114Z,98773.48
2023-01-18T23:27:35.844Z,98773.34
2023-01-18T23:30:04.278Z,98774.06
2023-01-18T23:32:32.344Z,98773.94
2023-01-18T23:35:00.413Z,98769.09
2023-01-18T23:37:28.447Z,98765.91
2023-01-18T23:40:15.872Z,98763.58
2023-01-18T23:43:02.396Z,98765.95
2023-01-18T23:45:49.095Z,98768.57
2023-01-18T23:48:37.460Z,98771.10
2023-01-18T23:51:25.960Z,98779.23
2023-01-18T23:54:14.720Z,98788.85
2023-01-18T23:56:44.465Z,98801.12
2023-01-18T23:59:13.832Z,98807.02
